Time;durP1;ratioP1;P1;durP2;ratioP2;P2;SDS_P1;SDS_P2;PMS_P1;PMS_P2;Temp;Humidity;BMP_temperature;BMP_pressure;BME280_temperature;BME280_humidity;BME280_pressure;Samples;Min_cycle;Max_cycle;Signal;HPM_P1;HPM_P2
2020/12/04 00:00:18;;;;;;;18.43;15.70;;;1.50;95.70;;;;;;5047878;28;20184;-68
2020/12/04 00:02:44;;;;;;;19.10;15.70;;;1.50;95.60;;;;;;5053682;28;20793;-69
2020/12/04 00:05:09;;;;;;;20.27;16.10;;;1.50;95.90;;;;;;5054036;28;20225;-69
2020/12/04 00:07:35;;;;;;;18.03;16.13;;;1.50;96.40;;;;;;5053944;28;20226;-68
2020/12/04 00:10:01;;;;;;;19.27;16.33;;;1.60;96.30;;;;;;5053897;28;20184;-68
2020/12/04 00:12:26;;;;;;;21.23;16.53;;;1.60;95.90;;;;;;5053294;28;20203;-70
2020/12/04 00:14:52;;;;;;;19.57;16.10;;;1.60;96.30;;;;;;5053004;28;20269;-68
2020/12/04 00:17:18;;;;;;;20.80;15.90;;;1.60;95.80;;;;;;5052791;28;20180;-68
2020/12/04 00:19:43;;;;;;;19.83;16.40;;;1.60;95.30;;;;;;5053978;28;20175;-68
2020/12/04 00:22:09;;;;;;;21.70;17.13;;;1.60;95.50;;;;;;5053975;28;20186;-69
2020/12/04 00:24:35;;;;;;;24.27;16.73;;;1.60;95.40;;;;;;5052643;28;20644;-70
2020/12/04 00:27:01;;;;;;;20.57;16.83;;;1.60;95.30;;;;;;5052976;28;20233;-68
2020/12/04 00:29:27;;;;;;;21.77;17.07;;;1.60;95.00;;;;;;5052155;28;20691;-68
2020/12/04 00:31:56;;;;;;;22.67;17.73;;;1.50;95.30;;;;;;5053551;28;20235;-70
2020/12/04 00:34:23;;;;;;;21.53;16.07;;;1.50;95.70;;;;;;5053475;28;20729;-70
2020/12/04 00:36:50;;;;;;;23.80;17.13;;;1.50;96.00;;;;;;5047913;28;20572;-69
2020/12/04 00:39:16;;;;;;;21.13;16.50;;;1.50;96.50;;;;;;5053099;28;20196;-68
2020/12/04 00:41:42;;;;;;;23.53;17.10;;;1.50;96.80;;;;;;5053766;28;20222;-68
2020/12/04 00:44:08;;;;;;;22.27;16.53;;;1.50;96.80;;;;;;5036651;28;20218;-68
2020/12/04 00:46:34;;;;;;;23.63;17.60;;;1.50;96.70;;;;;;5052334;28;20285;-68
2020/12/04 00:48:59;;;;;;;21.77;17.97;;;1.50;96.70;;;;;;5052986;28;20211;-68
2020/12/04 00:51:25;;;;;;;22.03;17.93;;;1.50;96.30;;;;;;5052374;28;20195;-68
2020/12/04 00:53:51;;;;;;;22.13;17.10;;;1.40;96.40;;;;;;5053581;28;20677;-68
2020/12/04 00:56:17;;;;;;;23.40;16.80;;;1.40;96.50;;;;;;5052886;28;20176;-68
2020/12/04 00:58:46;;;;;;;22.00;17.40;;;1.40;96.40;;;;;;5052339;28;20539;-68
2020/12/04 01:01:12;;;;;;;23.20;17.20;;;1.40;96.30;;;;;;5053004;28;20270;-68
2020/12/04 01:03:38;;;;;;;22.73;18.20;;;1.40;95.80;;;;;;5052980;28;20241;-68
2020/12/04 01:06:04;;;;;;;20.90;16.33;;;1.40;96.40;;;;;;5052914;28;20191;-70
2020/12/04 01:08:30;;;;;;;23.53;17.77;;;1.30;96.80;;;;;;5054837;28;20207;-67
2020/12/04 01:10:56;;;;;;;20.07;16.70;;;1.30;97.20;;;;;;5057177;28;20743;-68
2020/12/04 01:13:23;;;;;;;22.60;16.87;;;1.20;97.20;;;;;;5055946;28;20214;-68
2020/12/04 01:15:49;;;;;;;19.57;16.13;;;1.30;97.00;;;;;;5055955;28;20282;-68
2020/12/04 01:18:15;;;;;;;20.50;15.93;;;1.30;96.80;;;;;;5053543;28;20261;-69
2020/12/04 01:20:40;;;;;;;20.83;15.50;;;1.30;96.80;;;;;;5052312;28;20183;-69
2020/12/04 01:23:06;;;;;;;17.90;15.10;;;1.30;96.80;;;;;;5052785;28;20179;-69
2020/12/04 01:25:31;;;;;;;20.53;15.87;;;1.30;96.60;;;;;;5052321;28;20194;-68
2020/12/04 01:27:57;;;;;;;19.03;15.57;;;1.30;95.80;;;;;;5051948;28;20199;-70
2020/12/04 01:30:22;;;;;;;20.47;16.47;;;1.40;95.90;;;;;;5052609;28;20189;-68
2020/12/04 01:32:48;;;;;;;19.77;15.80;;;1.40;96.00;;;;;;5051990;28;20302;-69
2020/12/04 01:35:14;;;;;;;19.03;14.43;;;1.40;95.90;;;;;;5050278;28;20178;-68
2020/12/04 01:37:41;;;;;;;19.77;15.83;;;1.40;95.60;;;;;;5051451;28;20262;-69
2020/12/04 01:40:07;;;;;;;17.63;15.50;;;1.40;95.60;;;;;;5051672;28;20203;-68
2020/12/04 01:42:32;;;;;;;19.77;16.20;;;1.40;95.60;;;;;;5052252;28;20186;-70
2020/12/04 01:44:58;;;;;;;19.20;15.90;;;1.40;95.80;;;;;;5052072;28;20194;-68
2020/12/04 01:47:25;;;;;;;21.67;16.83;;;1.40;96.30;;;;;;5051715;28;20185;-70
2020/12/04 01:49:51;;;;;;;19.87;15.73;;;1.40;96.40;;;;;;5052443;28;20182;-68
2020/12/04 01:52:17;;;;;;;20.07;15.87;;;1.40;96.40;;;;;;5051716;28;20293;-68
2020/12/04 01:54:47;;;;;;;20.47;16.20;;;1.40;96.60;;;;;;5052156;28;20300;-68
2020/12/04 01:57:13;;;;;;;21.53;17.03;;;1.40;96.80;;;;;;5048240;28;20739;-68
2020/12/04 01:59:39;;;;;;;22.33;16.67;;;1.50;97.10;;;;;;5039221;28;20176;-68
2020/12/04 02:02:17;;;;;;;19.97;15.90;;;1.50;96.80;;;;;;5052097;28;20665;-68
2020/12/04 02:04:43;;;;;;;18.90;15.77;;;1.50;96.60;;;;;;5050956;28;20265;-68
2020/12/04 02:07:19;;;;;;;18.97;14.23;;;1.50;96.60;;;;;;5051037;28;20200;-68
2020/12/04 02:09:50;;;;;;;20.40;15.87;;;1.50;96.40;;;;;;5039287;28;20225;-68
2020/12/04 02:12:18;;;;;;;22.37;16.20;;;1.50;96.40;;;;;;5051581;28;20210;-68
2020/12/04 02:14:47;;;;;;;20.73;15.97;;;1.50;96.20;;;;;;5051191;28;20171;-68
2020/12/04 02:17:13;;;;;;;20.77;17.40;;;1.50;96.20;;;;;;5051228;28;20174;-68
2020/12/04 02:19:42;;;;;;;22.20;17.80;;;1.50;96.10;;;;;;5051761;28;20182;-68
2020/12/04 02:22:11;;;;;;;21.33;17.07;;;1.50;96.40;;;;;;5051549;28;20195;-68
2020/12/04 02:24:39;;;;;;;20.80;16.23;;;1.50;96.50;;;;;;5050074;28;20190;-68
2020/12/04 02:27:09;;;;;;;20.17;16.40;;;1.40;96.70;;;;;;5051079;28;20548;-68
2020/12/04 02:29:38;;;;;;;21.50;16.97;;;1.40;97.00;;;;;;5051071;28;20692;-68
2020/12/04 02:32:10;;;;;;;22.63;17.37;;;1.40;97.20;;;;;;5050769;28;20290;-68
2020/12/04 02:34:35;;;;;;;22.07;16.70;;;1.40;97.20;;;;;;5050849;28;20245;-68
2020/12/04 02:37:01;;;;;;;20.20;17.03;;;1.40;97.60;;;;;;5050643;28;20191;-70
2020/12/04 02:39:27;;;;;;;20.83;16.13;;;1.40;97.70;;;;;;5050884;28;20641;-68
2020/12/04 02:41:52;;;;;;;21.70;17.50;;;1.40;97.50;;;;;;5050546;28;20191;-68
2020/12/04 02:44:18;;;;;;;23.33;17.23;;;1.40;97.70;;;;;;5051241;28;20229;-69
2020/12/04 02:46:47;;;;;;;23.70;17.83;;;1.40;97.90;;;;;;5050768;28;20190;-69
2020/12/04 02:49:12;;;;;;;22.13;16.27;;;1.40;97.60;;;;;;5035352;28;20216;-68
2020/12/04 02:51:43;;;;;;;22.77;16.03;;;1.40;97.70;;;;;;5050781;28;20214;-68
2020/12/04 02:54:08;;;;;;;21.37;16.50;;;1.50;97.00;;;;;;5050985;28;20171;-69
2020/12/04 02:56:34;;;;;;;20.03;16.57;;;1.50;97.00;;;;;;5050972;28;20179;-68
2020/12/04 02:59:00;;;;;;;21.17;17.30;;;1.50;96.70;;;;;;5049832;28;20577;-68
2020/12/04 03:01:25;;;;;;;22.03;17.13;;;1.50;97.30;;;;;;5050684;28;20187;-68
2020/12/04 03:03:51;;;;;;;22.30;17.67;;;1.50;97.10;;;;;;5050247;28;20214;-69
2020/12/04 03:06:16;;;;;;;22.20;18.20;;;1.50;97.60;;;;;;5050840;28;20196;-68
2020/12/04 03:08:43;;;;;;;23.50;17.83;;;1.50;97.60;;;;;;5050265;28;20207;-69
2020/12/04 03:11:09;;;;;;;23.53;17.77;;;1.60;97.50;;;;;;5050747;28;20570;-69
2020/12/04 03:13:35;;;;;;;22.83;18.03;;;1.60;97.30;;;;;;5050208;28;20189;-68
2020/12/04 03:16:00;;;;;;;23.00;17.73;;;1.60;97.10;;;;;;5050307;28;20586;-68
2020/12/04 03:18:26;;;;;;;21.33;17.27;;;1.50;96.90;;;;;;5049710;28;20702;-69
2020/12/04 03:20:51;;;;;;;20.47;16.60;;;1.50;96.90;;;;;;5050081;28;20203;-69
2020/12/04 03:23:17;;;;;;;21.53;17.03;;;1.50;97.00;;;;;;5050344;28;20269;-68
2020/12/04 03:25:43;;;;;;;22.70;19.17;;;1.40;96.90;;;;;;5049964;28;20179;-68
2020/12/04 03:28:08;;;;;;;22.43;17.40;;;1.40;97.10;;;;;;5050185;28;20199;-68
2020/12/04 03:30:34;;;;;;;21.23;17.80;;;1.40;97.10;;;;;;5049893;28;20195;-68
2020/12/04 03:33:00;;;;;;;21.30;16.37;;;1.40;97.10;;;;;;5050245;28;21155;-68
2020/12/04 03:35:25;;;;;;;22.07;17.43;;;1.40;97.50;;;;;;5033318;28;20190;-68
2020/12/04 03:37:51;;;;;;;23.43;18.73;;;1.50;97.60;;;;;;5050516;28;20222;-68
2020/12/04 03:40:17;;;;;;;21.40;17.73;;;1.40;97.40;;;;;;5036668;28;20214;-67
2020/12/04 03:42:42;;;;;;;22.40;17.30;;;1.50;97.30;;;;;;5050874;28;20191;-68
2020/12/04 03:45:08;;;;;;;23.30;18.40;;;1.50;97.40;;;;;;5050842;28;20739;-69
2020/12/04 03:47:37;;;;;;;20.60;16.73;;;1.50;97.80;;;;;;5034277;28;20285;-68
2020/12/04 03:50:04;;;;;;;22.00;17.63;;;1.50;97.90;;;;;;5050534;28;20182;-68
2020/12/04 03:52:29;;;;;;;21.33;17.63;;;1.60;97.70;;;;;;5033783;28;20210;-68
2020/12/04 03:54:55;;;;;;;22.40;19.17;;;1.60;97.90;;;;;;5050579;28;20182;-67
2020/12/04 03:57:20;;;;;;;20.23;16.50;;;1.60;98.00;;;;;;5033034;28;20178;-68
2020/12/04 03:59:46;;;;;;;22.87;17.83;;;1.70;97.80;;;;;;5049723;28;20738;-68
2020/12/04 04:02:12;;;;;;;22.37;18.30;;;1.70;97.20;;;;;;5050584;28;20180;-68
2020/12/04 04:04:37;;;;;;;22.30;17.80;;;1.70;97.00;;;;;;5050362;28;20657;-68
2020/12/04 04:07:03;;;;;;;22.97;17.47;;;1.70;97.10;;;;;;5050345;28;20179;-68
2020/12/04 04:09:28;;;;;;;22.13;18.10;;;1.70;97.00;;;;;;5050027;28;20238;-68
2020/12/04 04:11:54;;;;;;;23.57;18.00;;;1.70;97.00;;;;;;5050513;28;20260;-68
2020/12/04 04:14:20;;;;;;;20.97;16.50;;;1.70;97.00;;;;;;5049924;28;20275;-68
2020/12/04 04:16:45;;;;;;;22.90;16.90;;;1.70;97.10;;;;;;5050063;28;20183;-69
2020/12/04 04:19:11;;;;;;;23.60;17.70;;;1.70;97.00;;;;;;5049978;28;20204;-68
2020/12/04 04:21:39;;;;;;;23.67;17.53;;;1.70;96.90;;;;;;5050862;28;20192;-69
2020/12/04 04:24:06;;;;;;;22.83;18.03;;;1.70;97.00;;;;;;5049898;28;20182;-68
2020/12/04 04:26:31;;;;;;;21.23;17.20;;;1.70;96.80;;;;;;5049986;28;20186;-68
2020/12/04 04:28:57;;;;;;;23.43;17.27;;;1.70;96.90;;;;;;5049510;28;20704;-69
2020/12/04 04:31:23;;;;;;;21.93;18.20;;;1.70;97.30;;;;;;5049640;28;20651;-68
2020/12/04 04:33:48;;;;;;;22.40;18.27;;;1.60;97.30;;;;;;5043368;28;20239;-69
2020/12/04 04:36:14;;;;;;;24.07;18.23;;;1.60;97.30;;;;;;5048462;28;20669;-70
2020/12/04 04:38:39;;;;;;;25.00;18.63;;;1.70;97.00;;;;;;5050809;28;20254;-70
2020/12/04 04:41:05;;;;;;;20.30;16.70;;;1.70;97.10;;;;;;5050535;28;20196;-70
2020/12/04 04:43:31;;;;;;;23.47;18.20;;;1.70;97.10;;;;;;5052922;28;20900;-70
2020/12/04 04:46:19;;;;;;;21.00;17.83;;;1.70;97.50;;;;;;5050187;28;20187;-70
2020/12/04 04:48:52;;;;;;;21.23;17.07;;;1.70;96.60;;;;;;5053299;28;20683;-68
2020/12/04 04:51:20;;;;;;;23.17;18.57;;;1.70;97.00;;;;;;5054000;28;20215;-68
2020/12/04 04:53:54;;;;;;;21.63;16.93;;;1.80;97.20;;;;;;5053318;28;20267;-70
2020/12/04 04:56:20;;;;;;;21.27;16.93;;;1.80;96.70;;;;;;5053767;28;20645;-68
2020/12/04 04:58:45;;;;;;;21.83;17.80;;;1.80;96.10;;;;;;5053025;28;20257;-69
2020/12/04 05:01:11;;;;;;;21.67;17.73;;;1.80;96.30;;;;;;5053382;28;20703;-68
2020/12/04 05:03:37;;;;;;;21.93;18.07;;;1.90;96.30;;;;;;5053716;28;20214;-69
2020/12/04 05:06:02;;;;;;;22.93;17.47;;;1.90;96.40;;;;;;5053409;28;20249;-69
2020/12/04 05:08:28;;;;;;;24.03;18.30;;;1.90;96.30;;;;;;5052839;28;20612;-68
2020/12/04 05:11:07;;;;;;;23.50;18.83;;;1.90;96.30;;;;;;5052695;28;20602;-68
2020/12/04 05:13:33;;;;;;;23.47;18.43;;;1.90;96.50;;;;;;5040420;28;20180;-72
2020/12/04 05:15:59;;;;;;;23.47;17.77;;;1.90;96.70;;;;;;5052961;28;20180;-72
2020/12/04 05:18:24;;;;;;;21.90;18.03;;;2.00;96.80;;;;;;5053408;28;20614;-72
2020/12/04 05:20:52;;;;;;;23.13;18.97;;;2.00;96.90;;;;;;5052497;28;20195;-72
2020/12/04 05:23:18;;;;;;;24.57;19.13;;;2.00;97.00;;;;;;5047158;28;20194;-70
2020/12/04 05:25:49;;;;;;;24.57;18.43;;;2.00;96.50;;;;;;5044184;28;20685;-70
2020/12/04 05:28:25;;;;;;;23.27;19.80;;;2.00;96.80;;;;;;5051871;28;20623;-70
2020/12/04 05:31:10;;;;;;;23.30;18.43;;;2.00;96.90;;;;;;5039868;28;20240;-70
2020/12/04 05:33:37;;;;;;;23.58;21.00;;;2.00;97.00;;;;;;5043608;28;20562;-72
2020/12/04 05:36:04;;;;;;;20.47;18.27;;;1.90;97.00;;;;;;5053675;28;20181;-72
2020/12/04 05:38:30;;;;;;;21.47;17.93;;;1.90;97.00;;;;;;5052592;28;20210;-72
2020/12/04 05:41:09;;;;;;;22.93;19.07;;;1.90;96.60;;;;;;5053488;28;20265;-72
2020/12/04 05:43:37;;;;;;;22.80;19.23;;;2.00;97.20;;;;;;5053181;28;20646;-72
2020/12/04 05:46:25;;;;;;;20.23;17.27;;;2.00;97.60;;;;;;5046942;28;20674;-72
2020/12/04 05:49:07;;;;;;;20.53;17.03;;;2.00;96.50;;;;;;5051646;28;20219;-71
2020/12/04 05:51:35;;;;;;;20.70;16.13;;;2.10;95.50;;;;;;5047611;28;20198;-71
2020/12/04 05:54:02;;;;;;;19.87;16.47;;;2.10;95.60;;;;;;5028233;28;20176;-72
2020/12/04 05:56:32;;;;;;;24.43;18.43;;;2.10;95.90;;;;;;5047429;28;20181;-70
2020/12/04 05:59:04;;;;;;;21.37;16.43;;;2.00;95.90;;;;;;5038062;28;20209;-70
2020/12/04 06:01:30;;;;;;;22.30;18.43;;;2.00;96.30;;;;;;5027982;28;20187;-73
2020/12/04 06:03:57;;;;;;;23.47;18.20;;;2.00;96.30;;;;;;5052642;28;20179;-73
2020/12/04 06:06:30;;;;;;;21.83;18.37;;;2.10;95.30;;;;;;5051143;28;20183;-73
2020/12/04 06:09:17;;;;;;;22.63;18.03;;;2.10;95.30;;;;;;5045556;28;20249;-73
2020/12/04 06:11:46;;;;;;;24.67;17.00;;;2.10;95.70;;;;;;5047190;28;20201;-73
2020/12/04 06:14:16;;;;;;;21.07;17.23;;;2.10;95.70;;;;;;5058321;28;20713;-73
2020/12/04 06:16:43;;;;;;;21.60;15.97;;;2.10;96.10;;;;;;5054922;28;20196;-72
2020/12/04 06:19:42;;;;;;;23.43;16.40;;;2.10;95.80;;;;;;5056031;28;20273;-72
2020/12/04 06:22:18;;;;;;;20.43;16.23;;;2.10;96.10;;;;;;4947472;28;20703;-72
2020/12/04 06:24:55;;;;;;;18.87;15.50;;;2.20;95.50;;;;;;4944183;28;20204;-72
2020/12/04 06:27:36;;;;;;;18.73;15.07;;;2.20;94.80;;;;;;4944817;28;20203;-72
2020/12/04 06:30:04;;;;;;;18.33;15.07;;;2.20;94.80;;;;;;4939449;28;20187;-72
2020/12/04 06:32:41;;;;;;;18.37;15.50;;;2.30;94.40;;;;;;4932011;28;20263;-71
2020/12/04 06:35:08;;;;;;;18.70;15.23;;;2.30;94.30;;;;;;4945526;28;20610;-72
2020/12/04 06:37:40;;;;;;;19.23;16.03;;;2.30;94.30;;;;;;4921114;28;21561;-72
2020/12/04 06:40:27;;;;;;;20.63;16.43;;;2.20;94.00;;;;;;4895573;28;21492;-72
2020/12/04 06:42:54;;;;;;;20.10;15.20;;;2.20;93.90;;;;;;4905862;28;20199;-71
2020/12/04 06:45:20;;;;;;;19.77;15.67;;;2.20;93.90;;;;;;4929278;28;20589;-72
2020/12/04 06:48:09;;;;;;;18.83;15.17;;;2.20;93.80;;;;;;4934843;29;20202;-72
2020/12/04 06:50:45;;;;;;;17.07;14.30;;;2.30;93.60;;;;;;4936141;28;20252;-71
2020/12/04 06:53:12;;;;;;;19.70;15.80;;;2.20;93.70;;;;;;4925805;29;20290;-71
2020/12/04 06:55:39;;;;;;;21.70;16.27;;;2.20;93.40;;;;;;4948765;28;20175;-72
2020/12/04 06:58:05;;;;;;;19.40;15.20;;;2.30;94.00;;;;;;4994507;28;20204;-72
2020/12/04 07:00:31;;;;;;;21.47;17.40;;;2.30;93.70;;;;;;5045476;28;20188;-71
2020/12/04 07:03:01;;;;;;;18.63;15.43;;;2.30;94.00;;;;;;5041778;28;20234;-71
2020/12/04 07:05:28;;;;;;;19.97;16.80;;;2.30;94.40;;;;;;5037658;28;20241;-72
2020/12/04 07:08:03;;;;;;;22.70;16.37;;;2.20;94.00;;;;;;5048522;28;20212;-71
2020/12/04 07:10:31;;;;;;;20.70;16.10;;;2.20;94.20;;;;;;5049295;28;20176;-71
2020/12/04 07:12:58;;;;;;;19.77;16.00;;;2.30;94.70;;;;;;5041811;28;20211;-71
2020/12/04 07:15:23;;;;;;;19.60;14.73;;;2.40;94.70;;;;;;5045462;28;20677;-72
2020/12/04 07:17:49;;;;;;;19.90;16.63;;;2.50;94.30;;;;;;5038207;28;20194;-71
2020/12/04 07:20:15;;;;;;;21.63;17.40;;;2.50;93.90;;;;;;5051577;28;20245;-71
2020/12/04 07:22:40;;;;;;;23.17;17.90;;;2.60;94.10;;;;;;5050613;28;20650;-71
2020/12/04 07:25:06;;;;;;;23.30;17.60;;;2.60;93.60;;;;;;5039303;28;20561;-71
2020/12/04 07:27:32;;;;;;;24.43;16.80;;;2.60;93.60;;;;;;5048522;28;20210;-71
2020/12/04 07:29:58;;;;;;;23.67;17.73;;;2.60;93.90;;;;;;5054032;28;20241;-71
2020/12/04 07:32:25;;;;;;;22.87;18.27;;;2.60;94.00;;;;;;5056951;28;20247;-71
2020/12/04 07:34:51;;;;;;;23.90;18.67;;;2.50;93.90;;;;;;5048224;28;20185;-72
2020/12/04 07:37:17;;;;;;;24.70;19.67;;;2.60;94.30;;;;;;5056835;28;20208;-71
2020/12/04 07:39:44;;;;;;;24.17;18.10;;;2.60;94.20;;;;;;5055756;28;20241;-71
2020/12/04 07:42:12;;;;;;;22.57;17.43;;;2.50;94.40;;;;;;5056880;28;20192;-71
2020/12/04 07:44:50;;;;;;;21.73;15.83;;;2.50;94.30;;;;;;5056237;28;20193;-72
2020/12/04 07:47:17;;;;;;;24.77;17.97;;;2.50;94.80;;;;;;5050437;28;20680;-72
2020/12/04 07:49:45;;;;;;;25.73;18.77;;;2.50;94.10;;;;;;5052798;28;20186;-72
2020/12/04 07:52:18;;;;;;;24.20;19.43;;;2.50;94.20;;;;;;5032285;28;20217;-71
2020/12/04 07:54:45;;;;;;;20.37;16.80;;;2.60;94.60;;;;;;5050803;28;20563;-72
2020/12/04 07:57:12;;;;;;;23.77;16.33;;;2.60;93.80;;;;;;5050487;28;20254;-72
2020/12/04 07:59:39;;;;;;;20.87;16.77;;;2.70;93.70;;;;;;5050181;28;20201;-71
2020/12/04 08:02:05;;;;;;;24.03;17.47;;;2.70;93.20;;;;;;5054877;28;20184;-72
2020/12/04 08:04:32;;;;;;;27.77;16.97;;;2.70;93.40;;;;;;5041954;28;20239;-72
2020/12/04 08:07:08;;;;;;;19.23;16.47;;;2.70;92.90;;;;;;5046692;28;20595;-72
2020/12/04 08:09:38;;;;;;;21.27;16.50;;;2.70;93.50;;;;;;5051122;28;20249;-72
2020/12/04 08:12:12;;;;;;;24.70;19.60;;;2.80;93.90;;;;;;5028999;28;20217;-72
2020/12/04 08:14:40;;;;;;;21.67;18.87;;;2.90;93.40;;;;;;5050081;28;20188;-71
2020/12/04 08:17:07;;;;;;;25.43;18.17;;;3.00;93.30;;;;;;5049656;28;20196;-71
2020/12/04 08:19:35;;;;;;;24.10;19.23;;;3.10;93.00;;;;;;5049578;28;20340;-71
2020/12/04 08:22:08;;;;;;;24.27;19.47;;;3.20;93.10;;;;;;5051678;28;20189;-72
2020/12/04 08:24:49;;;;;;;22.13;17.00;;;3.30;92.50;;;;;;5054516;28;20242;-71
2020/12/04 08:27:15;;;;;;;20.77;17.27;;;3.40;92.00;;;;;;5062526;28;20513;-72
2020/12/04 08:29:42;;;;;;;24.63;18.63;;;3.40;91.50;;;;;;5055110;28;20221;-71
2020/12/04 08:32:19;;;;;;;23.17;18.97;;;3.50;91.30;;;;;;5054877;28;20686;-71
2020/12/04 08:34:45;;;;;;;29.70;23.80;;;3.40;91.40;;;;;;5052557;28;20695;-71
2020/12/04 08:37:12;;;;;;;29.50;23.90;;;3.50;91.60;;;;;;5046743;28;20187;-73
2020/12/04 08:39:46;;;;;;;23.80;19.93;;;3.50;91.50;;;;;;5054318;28;20191;-71
2020/12/04 08:42:16;;;;;;;28.67;20.83;;;3.50;90.60;;;;;;5048350;28;20645;-72
2020/12/04 08:44:53;;;;;;;24.27;18.40;;;3.50;90.40;;;;;;5050328;28;20177;-72
2020/12/04 08:47:34;;;;;;;23.13;18.77;;;3.50;90.70;;;;;;5049830;28;20227;-72
2020/12/04 08:50:23;;;;;;;22.53;17.33;;;3.60;90.50;;;;;;5048834;28;20185;-71
2020/12/04 08:52:55;;;;;;;20.57;17.33;;;3.50;89.60;;;;;;5038582;28;20311;-72
2020/12/04 08:55:27;;;;;;;25.00;17.13;;;3.60;88.60;;;;;;5056091;28;21570;-73
2020/12/04 08:57:55;;;;;;;21.23;17.43;;;3.50;88.00;;;;;;5054093;28;20204;-71
2020/12/04 09:00:30;;;;;;;24.67;17.97;;;3.60;90.00;;;;;;5058229;28;20804;-71
2020/12/04 09:02:56;;;;;;;24.70;19.00;;;3.60;90.00;;;;;;5057037;28;20177;-71
2020/12/04 09:05:22;;;;;;;20.73;17.37;;;3.80;90.00;;;;;;5056784;28;20568;-71
2020/12/04 09:07:48;;;;;;;20.47;16.73;;;3.90;88.60;;;;;;5055507;28;20201;-71
2020/12/04 09:10:16;;;;;;;21.03;17.13;;;4.00;88.70;;;;;;5056609;28;20257;-70
2020/12/04 09:12:43;;;;;;;24.07;16.07;;;4.10;88.30;;;;;;5053413;28;20348;-70
2020/12/04 09:15:15;;;;;;;21.57;15.23;;;4.40;87.20;;;;;;5052567;28;20641;-70
2020/12/04 09:17:41;;;;;;;19.77;15.67;;;4.60;85.00;;;;;;5051244;28;20209;-70
2020/12/04 09:20:08;;;;;;;19.20;15.63;;;4.60;84.70;;;;;;5053213;28;20188;-70
2020/12/04 09:22:34;;;;;;;22.40;15.57;;;4.70;84.70;;;;;;5053443;28;20263;-70
2020/12/04 09:25:02;;;;;;;21.37;15.43;;;4.70;84.00;;;;;;5036816;28;20215;-70
2020/12/04 09:27:28;;;;;;;21.57;14.90;;;4.70;84.00;;;;;;5052555;28;20186;-70
2020/12/04 09:29:54;;;;;;;19.73;15.53;;;4.80;83.50;;;;;;5052839;28;20185;-70
2020/12/04 09:32:21;;;;;;;19.77;16.90;;;4.70;82.80;;;;;;5046380;28;20771;-70
2020/12/04 09:34:48;;;;;;;22.13;16.03;;;4.70;82.50;;;;;;5049363;28;20194;-70
2020/12/04 09:37:33;;;;;;;20.07;16.93;;;4.70;83.80;;;;;;5050385;28;20185;-70
2020/12/04 09:40:06;;;;;;;19.63;15.40;;;4.70;84.50;;;;;;5051769;28;20193;-71
2020/12/04 09:42:32;;;;;;;22.13;15.27;;;4.80;85.90;;;;;;5043871;28;20820;-70
2020/12/04 09:44:58;;;;;;;18.83;15.67;;;4.80;85.30;;;;;;5052129;28;20193;-71
2020/12/04 09:47:25;;;;;;;23.00;17.67;;;4.70;84.60;;;;;;5037692;28;20207;-71
2020/12/04 09:49:52;;;;;;;34.17;21.70;;;4.80;85.70;;;;;;5041494;28;20189;-70
2020/12/04 09:52:19;;;;;;;20.87;16.33;;;4.80;84.40;;;;;;5048896;28;20215;-70
2020/12/04 09:54:46;;;;;;;18.17;14.77;;;4.70;84.00;;;;;;5051588;28;20179;-70
2020/12/04 09:57:14;;;;;;;21.60;15.43;;;4.70;86.10;;;;;;5048252;28;20578;-70
2020/12/04 09:59:40;;;;;;;19.57;15.97;;;4.70;86.20;;;;;;5052266;28;20611;-71
2020/12/04 10:02:07;;;;;;;17.63;15.07;;;4.70;84.50;;;;;;5052656;28;20239;-71
2020/12/04 10:04:33;;;;;;;20.00;15.60;;;4.50;86.00;;;;;;5051685;28;20179;-70
2020/12/04 10:06:59;;;;;;;20.53;15.63;;;4.50;86.60;;;;;;5052152;28;20192;-70
2020/12/04 10:09:26;;;;;;;20.30;15.83;;;4.40;86.60;;;;;;5052058;28;20209;-70
2020/12/04 10:11:52;;;;;;;19.60;15.90;;;4.30;85.80;;;;;;5040259;28;20555;-72
2020/12/04 10:14:18;;;;;;;18.53;15.60;;;4.20;87.00;;;;;;5051481;28;20193;-72
2020/12/04 10:16:46;;;;;;;20.63;15.47;;;4.10;88.60;;;;;;5047665;28;20308;-71
2020/12/04 10:19:13;;;;;;;20.40;16.10;;;4.00;89.80;;;;;;5043663;28;20205;-70
2020/12/04 10:21:39;;;;;;;19.53;15.50;;;4.00;90.00;;;;;;5049304;28;20195;-71
2020/12/04 10:24:06;;;;;;;20.10;16.47;;;4.10;90.10;;;;;;5051811;28;20215;-71
2020/12/04 10:26:37;;;;;;;22.17;16.47;;;4.10;88.30;;;;;;5052033;28;20180;-71
2020/12/04 10:29:03;;;;;;;19.77;15.57;;;4.10;88.60;;;;;;5048250;28;20213;-71
2020/12/04 10:31:28;;;;;;;24.93;16.20;;;4.10;89.70;;;;;;5051142;28;20203;-71
2020/12/04 10:33:54;;;;;;;23.60;17.07;;;4.10;90.00;;;;;;5051135;28;20205;-71
2020/12/04 10:36:20;;;;;;;23.07;17.93;;;4.10;90.30;;;;;;5032184;28;20215;-70
2020/12/04 10:38:45;;;;;;;22.87;18.10;;;4.20;90.60;;;;;;5030426;28;20209;-71
2020/12/04 10:41:11;;;;;;;29.67;24.93;;;4.20;90.60;;;;;;5044084;28;20218;-71
2020/12/04 10:43:37;;;;;;;26.10;17.63;;;4.30;89.50;;;;;;5037789;28;20210;-71
2020/12/04 10:46:03;;;;;;;25.47;18.47;;;4.30;89.70;;;;;;5045241;28;20868;-71
2020/12/04 10:48:28;;;;;;;24.80;16.77;;;4.30;90.10;;;;;;5050605;28;20293;-71
2020/12/04 10:50:54;;;;;;;21.37;17.83;;;4.30;90.20;;;;;;5051892;28;20640;-71
2020/12/04 10:53:22;;;;;;;24.37;18.67;;;4.40;89.60;;;;;;5050656;28;20708;-71
2020/12/04 10:55:48;;;;;;;21.67;17.77;;;4.20;87.40;;;;;;5051589;28;20190;-70
2020/12/04 10:58:14;;;;;;;29.30;18.40;;;4.30;89.00;;;;;;5050495;28;20204;-71
2020/12/04 11:00:40;;;;;;;25.33;17.97;;;4.30;88.60;;;;;;5048830;28;20273;-70
2020/12/04 11:03:13;;;;;;;25.60;19.07;;;4.30;89.40;;;;;;5056222;28;20268;-70
2020/12/04 11:05:43;;;;;;;29.67;20.33;;;4.30;88.70;;;;;;5054345;28;20992;-70
2020/12/04 11:08:09;;;;;;;28.60;18.50;;;4.40;89.70;;;;;;5042230;28;20207;-70
2020/12/04 11:10:36;;;;;;;21.47;16.80;;;4.40;89.90;;;;;;5043619;28;20606;-71
2020/12/04 11:13:03;;;;;;;19.27;16.20;;;4.40;89.70;;;;;;5043285;28;20232;-71
2020/12/04 11:15:30;;;;;;;18.40;16.43;;;4.50;89.00;;;;;;5050188;28;20207;-70
2020/12/04 11:17:56;;;;;;;23.13;17.10;;;4.50;88.70;;;;;;5052630;28;20244;-71
2020/12/04 11:20:22;;;;;;;24.40;18.00;;;4.60;88.70;;;;;;5032716;28;20212;-71
2020/12/04 11:22:49;;;;;;;23.13;17.20;;;4.60;87.80;;;;;;5046340;28;20731;-71
2020/12/04 11:25:15;;;;;;;20.13;16.43;;;4.70;87.80;;;;;;5037892;28;20203;-70
2020/12/04 11:27:45;;;;;;;20.70;17.63;;;4.70;87.40;;;;;;5047995;28;20235;-71
2020/12/04 11:30:20;;;;;;;28.13;16.77;;;4.70;87.70;;;;;;5051321;28;20192;-71
2020/12/04 11:32:46;;;;;;;21.53;15.47;;;4.70;87.50;;;;;;5049687;28;20209;-71
2020/12/04 11:35:14;;;;;;;23.13;15.37;;;4.70;85.90;;;;;;5049213;28;20840;-71
2020/12/04 11:37:42;;;;;;;24.17;16.67;;;4.70;86.60;;;;;;5056932;28;20200;-70
2020/12/04 11:40:10;;;;;;;22.63;16.70;;;4.70;86.40;;;;;;5051467;28;20193;-70
2020/12/04 11:42:39;;;;;;;21.43;16.83;;;4.70;86.50;;;;;;5049916;28;20216;-70
2020/12/04 11:45:10;;;;;;;22.70;18.27;;;4.80;86.80;;;;;;5048544;28;20567;-70
2020/12/04 11:47:37;;;;;;;21.20;16.33;;;4.70;85.70;;;;;;5031173;28;20266;-70
2020/12/04 11:50:11;;;;;;;20.53;15.90;;;4.70;85.40;;;;;;5045022;28;20196;-70
2020/12/04 11:52:37;;;;;;;26.23;16.17;;;4.70;83.40;;;;;;5046946;28;20345;-71
2020/12/04 11:55:07;;;;;;;33.73;22.27;;;4.70;84.60;;;;;;5049918;28;20277;-70
2020/12/04 11:57:32;;;;;;;23.00;17.90;;;4.70;86.10;;;;;;5047295;28;20182;-71
2020/12/04 11:59:59;;;;;;;26.97;17.67;;;4.70;86.30;;;;;;5047651;28;20286;-70
2020/12/04 12:02:25;;;;;;;19.80;16.03;;;4.60;88.50;;;;;;5049958;28;20783;-71
2020/12/04 12:04:51;;;;;;;23.93;17.53;;;4.60;89.60;;;;;;5049939;28;20224;-71
2020/12/04 12:07:17;;;;;;;22.50;17.07;;;4.50;89.90;;;;;;5046734;28;20239;-71
2020/12/04 12:09:42;;;;;;;24.17;16.87;;;4.50;90.20;;;;;;5040791;28;20270;-71
2020/12/04 12:12:08;;;;;;;29.70;18.10;;;4.50;90.50;;;;;;5044282;28;20219;-71
2020/12/04 12:14:34;;;;;;;25.37;19.80;;;4.60;90.20;;;;;;5045866;28;20744;-70
2020/12/04 12:16:59;;;;;;;23.73;17.77;;;4.60;89.10;;;;;;5048685;28;20177;-70
2020/12/04 12:19:25;;;;;;;23.67;17.90;;;4.70;89.10;;;;;;5049456;28;20280;-70
2020/12/04 12:21:51;;;;;;;27.73;19.97;;;4.70;89.10;;;;;;5050637;28;20282;-71
2020/12/04 12:24:17;;;;;;;26.43;19.67;;;4.70;87.40;;;;;;5050395;28;20198;-70
2020/12/04 12:26:43;;;;;;;28.90;19.90;;;4.70;87.50;;;;;;5021684;28;20231;-70
2020/12/04 12:29:09;;;;;;;23.63;18.10;;;4.70;88.10;;;;;;5028988;28;20603;-71
2020/12/04 12:31:34;;;;;;;30.37;21.67;;;4.70;88.10;;;;;;5043564;28;20216;-72
2020/12/04 12:34:00;;;;;;;31.30;22.10;;;4.80;88.00;;;;;;5050493;28;20186;-71
2020/12/04 12:36:26;;;;;;;46.07;34.70;;;4.80;89.10;;;;;;5044718;28;20248;-70
2020/12/04 12:38:56;;;;;;;36.40;32.43;;;4.90;87.50;;;;;;5031541;28;20212;-71